sensor_id;sensor_type;location;lat;lon;timestamp;pressure;altitude;pressure_sealevel;temperature;humidity
40730;BME280;26418;50.070;8.436;2023-03-03T00:00:22;100348.47;;;3.40;54.38
40730;BME280;26418;50.070;8.436;2023-03-03T00:02:47;100355.75;;;3.28;55.21
40730;BME280;26418;50.070;8.436;2023-03-03T00:05:13;100363.59;;;3.18;55.70
40730;BME280;26418;50.070;8.436;2023-03-03T00:07:42;100355.72;;;3.11;56.10
40730;BME280;26418;50.070;8.436;2023-03-03T00:10:08;100353.22;;;3.04;56.17
40730;BME280;26418;50.070;8.436;2023-03-03T00:12:34;100339.78;;;2.87;56.19
40730;BME280;26418;50.070;8.436;2023-03-03T00:15:18;100364.88;;;2.98;56.46
40730;BME280;26418;50.070;8.436;2023-03-03T00:17:44;100362.06;;;2.93;57.02
40730;BME280;26418;50.070;8.436;2023-03-03T00:20:39;100369.47;;;3.03;56.82
40730;BME280;26418;50.070;8.436;2023-03-03T00:23:19;100380.84;;;3.10;56.61
40730;BME280;26418;50.070;8.436;2023-03-03T00:25:49;100381.78;;;3.04;57.04
40730;BME280;26418;50.070;8.436;2023-03-03T00:30:53;100382.50;;;2.99;57.68
40730;BME280;26418;50.070;8.436;2023-03-03T00:33:31;100389.38;;;2.95;57.52
40730;BME280;26418;50.070;8.436;2023-03-03T00:36:09;100390.56;;;2.87;58.20
40730;BME280;26418;50.070;8.436;2023-03-03T00:38:36;100380.28;;;2.67;58.14
40730;BME280;26418;50.070;8.436;2023-03-03T00:41:03;100405.34;;;2.66;58.84
40730;BME280;26418;50.070;8.436;2023-03-03T00:43:34;100409.56;;;2.62;59.38
40730;BME280;26418;50.070;8.436;2023-03-03T00:46:00;100398.28;;;2.60;59.41
40730;BME280;26418;50.070;8.436;2023-03-03T00:48:46;100408.72;;;2.61;59.30
40730;BME280;26418;50.070;8.436;2023-03-03T00:53:46;100411.41;;;2.49;60.50
40730;BME280;26418;50.070;8.436;2023-03-03T00:56:12;100395.06;;;2.34;60.57
40730;BME280;26418;50.070;8.436;2023-03-03T00:58:37;100404.34;;;2.43;60.59
40730;BME280;26418;50.070;8.436;2023-03-03T01:01:03;100402.97;;;2.29;60.81
40730;BME280;26418;50.070;8.436;2023-03-03T01:03:28;100405.16;;;2.32;61.04
40730;BME280;26418;50.070;8.436;2023-03-03T01:05:53;100414.34;;;2.36;61.10
40730;BME280;26418;50.070;8.436;2023-03-03T01:08:19;100407.28;;;2.30;61.24
40730;BME280;26418;50.070;8.436;2023-03-03T01:10:54;100401.00;;;2.24;61.01
40730;BME280;26418;50.070;8.436;2023-03-03T01:13:23;100410.28;;;2.22;61.38
40730;BME280;26418;50.070;8.436;2023-03-03T01:15:50;100405.41;;;2.18;61.75
40730;BME280;26418;50.070;8.436;2023-03-03T01:18:15;100406.44;;;2.17;61.84
40730;BME280;26418;50.070;8.436;2023-03-03T01:20:41;100399.72;;;2.15;62.03
40730;BME280;26418;50.070;8.436;2023-03-03T01:23:07;100407.16;;;2.13;61.87
40730;BME280;26418;50.070;8.436;2023-03-03T01:25:33;100401.00;;;2.00;62.22
40730;BME280;26418;50.070;8.436;2023-03-03T01:27:58;100418.41;;;2.03;62.75
40730;BME280;26418;50.070;8.436;2023-03-03T01:30:24;100414.78;;;1.97;62.99
40730;BME280;26418;50.070;8.436;2023-03-03T01:32:50;100413.06;;;1.91;63.16
40730;BME280;26418;50.070;8.436;2023-03-03T01:35:16;100402.72;;;1.83;63.32
40730;BME280;26418;50.070;8.436;2023-03-03T01:37:42;100405.41;;;1.83;63.49
40730;BME280;26418;50.070;8.436;2023-03-03T01:40:13;100395.78;;;1.82;63.77
40730;BME280;26418;50.070;8.436;2023-03-03T01:42:39;100403.19;;;1.80;63.74
40730;BME280;26418;50.070;8.436;2023-03-03T01:45:15;100397.38;;;1.71;64.11
40730;BME280;26418;50.070;8.436;2023-03-03T01:47:48;100395.16;;;1.68;64.38
40730;BME280;26418;50.070;8.436;2023-03-03T01:53:10;100388.97;;;1.55;64.86
40730;BME280;26418;50.070;8.436;2023-03-03T01:55:38;100389.81;;;1.56;65.12
40730;BME280;26418;50.070;8.436;2023-03-03T01:58:10;100370.97;;;1.39;65.38
40730;BME280;26418;50.070;8.436;2023-03-03T02:00:38;100395.47;;;1.48;65.42
40730;BME280;26418;50.070;8.436;2023-03-03T02:03:05;100386.88;;;1.46;65.84
40730;BME280;26418;50.070;8.436;2023-03-03T02:05:31;100384.53;;;1.37;65.78
40730;BME280;26418;50.070;8.436;2023-03-03T02:07:56;100383.06;;;1.41;66.44
40730;BME280;26418;50.070;8.436;2023-03-03T02:10:22;100392.88;;;1.41;66.37
40730;BME280;26418;50.070;8.436;2023-03-03T02:12:53;100379.44;;;1.36;66.97
40730;BME280;26418;50.070;8.436;2023-03-03T02:15:33;100392.69;;;1.43;66.71
40730;BME280;26418;50.070;8.436;2023-03-03T02:18:07;100387.44;;;1.36;67.02
40730;BME280;26418;50.070;8.436;2023-03-03T02:28:20;100385.53;;;1.24;68.03
40730;BME280;26418;50.070;8.436;2023-03-03T02:30:46;100377.44;;;1.19;68.26
40730;BME280;26418;50.070;8.436;2023-03-03T02:33:11;100393.19;;;1.21;68.36
40730;BME280;26418;50.070;8.436;2023-03-03T02:35:38;100396.88;;;1.20;68.35
40730;BME280;26418;50.070;8.436;2023-03-03T02:38:23;100397.09;;;1.18;68.62
40730;BME280;26418;50.070;8.436;2023-03-03T02:41:41;100397.22;;;1.23;68.59
40730;BME280;26418;50.070;8.436;2023-03-03T02:43:50;100402.22;;;1.20;68.52
40730;BME280;26418;50.070;8.436;2023-03-03T02:46:17;100374.84;;;1.13;68.86
40730;BME280;26418;50.070;8.436;2023-03-03T02:48:43;100383.88;;;1.12;69.13
40730;BME280;26418;50.070;8.436;2023-03-03T02:51:08;100394.44;;;1.18;69.17
40730;BME280;26418;50.070;8.436;2023-03-03T02:53:34;100383.16;;;1.04;69.44
40730;BME280;26418;50.070;8.436;2023-03-03T02:55:59;100402.53;;;1.12;69.78
40730;BME280;26418;50.070;8.436;2023-03-03T02:58:24;100394.53;;;1.12;70.20
40730;BME280;26418;50.070;8.436;2023-03-03T03:00:50;100392.53;;;1.07;70.42
40730;BME280;26418;50.070;8.436;2023-03-03T03:03:15;100395.78;;;1.09;70.72
40730;BME280;26418;50.070;8.436;2023-03-03T03:05:40;100390.69;;;1.07;70.45
40730;BME280;26418;50.070;8.436;2023-03-03T03:08:06;100393.56;;;1.06;70.72
40730;BME280;26418;50.070;8.436;2023-03-03T03:10:31;100388.72;;;1.03;70.97
40730;BME280;26418;50.070;8.436;2023-03-03T03:12:56;100391.38;;;1.03;71.42
40730;BME280;26418;50.070;8.436;2023-03-03T03:15:22;100392.41;;;1.02;71.18
40730;BME280;26418;50.070;8.436;2023-03-03T03:17:47;100372.44;;;0.92;71.72
40730;BME280;26418;50.070;8.436;2023-03-03T03:20:12;100383.38;;;1.03;71.53
40730;BME280;26418;50.070;8.436;2023-03-03T03:22:38;100374.09;;;0.93;71.48
40730;BME280;26418;50.070;8.436;2023-03-03T03:25:03;100393.00;;;1.04;71.61
40730;BME280;26418;50.070;8.436;2023-03-03T03:27:29;100392.78;;;1.05;71.83
40730;BME280;26418;50.070;8.436;2023-03-03T03:29:54;100385.91;;;0.98;71.54
40730;BME280;26418;50.070;8.436;2023-03-03T03:32:19;100396.59;;;1.09;71.93
40730;BME280;26418;50.070;8.436;2023-03-03T03:34:45;100400.88;;;1.10;71.57
40730;BME280;26418;50.070;8.436;2023-03-03T03:37:10;100391.75;;;1.06;72.11
40730;BME280;26418;50.070;8.436;2023-03-03T03:39:35;100388.72;;;1.03;71.96
40730;BME280;26418;50.070;8.436;2023-03-03T03:42:01;100383.97;;;1.05;72.19
40730;BME280;26418;50.070;8.436;2023-03-03T03:44:26;100385.09;;;0.97;72.16
40730;BME280;26418;50.070;8.436;2023-03-03T03:46:52;100388.56;;;0.98;72.24
40730;BME280;26418;50.070;8.436;2023-03-03T03:49:17;100402.63;;;1.05;72.36
40730;BME280;26418;50.070;8.436;2023-03-03T03:51:42;100402.84;;;1.03;71.85
40730;BME280;26418;50.070;8.436;2023-03-03T03:54:08;100405.13;;;1.00;72.39
40730;BME280;26418;50.070;8.436;2023-03-03T03:56:33;100405.00;;;0.94;72.87
40730;BME280;26418;50.070;8.436;2023-03-03T03:58:58;100403.00;;;0.90;73.07
40730;BME280;26418;50.070;8.436;2023-03-03T04:01:25;100406.34;;;0.85;72.85
40730;BME280;26418;50.070;8.436;2023-03-03T04:03:50;100415.50;;;0.89;73.07
40730;BME280;26418;50.070;8.436;2023-03-03T04:06:15;100416.16;;;0.85;73.53
40730;BME280;26418;50.070;8.436;2023-03-03T04:08:41;100409.00;;;0.85;73.63
40730;BME280;26418;50.070;8.436;2023-03-03T04:11:06;100407.38;;;0.84;73.53
40730;BME280;26418;50.070;8.436;2023-03-03T04:13:32;100407.25;;;0.79;74.09
40730;BME280;26418;50.070;8.436;2023-03-03T04:16:02;100407.44;;;0.77;74.17
40730;BME280;26418;50.070;8.436;2023-03-03T04:18:27;100404.22;;;0.75;74.28
40730;BME280;26418;50.070;8.436;2023-03-03T04:20:53;100410.09;;;0.77;74.35
40730;BME280;26418;50.070;8.436;2023-03-03T04:23:20;100418.75;;;0.73;74.43
40730;BME280;26418;50.070;8.436;2023-03-03T04:25:46;100394.84;;;0.54;74.94
40730;BME280;26418;50.070;8.436;2023-03-03T04:28:12;100421.66;;;0.71;75.38
40730;BME280;26418;50.070;8.436;2023-03-03T04:30:38;100422.56;;;0.65;75.31
40730;BME280;26418;50.070;8.436;2023-03-03T04:33:03;100424.31;;;0.71;75.18
40730;BME280;26418;50.070;8.436;2023-03-03T04:35:28;100428.38;;;0.74;75.26
40730;BME280;26418;50.070;8.436;2023-03-03T04:37:53;100428.47;;;0.67;75.22
40730;BME280;26418;50.070;8.436;2023-03-03T04:40:19;100417.53;;;0.57;75.49
40730;BME280;26418;50.070;8.436;2023-03-03T04:42:44;100431.19;;;0.60;75.79
40730;BME280;26418;50.070;8.436;2023-03-03T04:45:10;100428.31;;;0.62;75.22
40730;BME280;26418;50.070;8.436;2023-03-03T04:47:36;100429.72;;;0.65;75.56
40730;BME280;26418;50.070;8.436;2023-03-03T04:50:01;100426.31;;;0.57;75.63
40730;BME280;26418;50.070;8.436;2023-03-03T04:52:27;100431.34;;;0.66;75.39
40730;BME280;26418;50.070;8.436;2023-03-03T04:54:52;100428.47;;;0.67;75.14
40730;BME280;26418;50.070;8.436;2023-03-03T04:57:18;100431.19;;;0.60;74.74
40730;BME280;26418;50.070;8.436;2023-03-03T04:59:43;100429.44;;;0.54;75.37
40730;BME280;26418;50.070;8.436;2023-03-03T05:02:08;100422.78;;;0.45;75.18
40730;BME280;26418;50.070;8.436;2023-03-03T05:04:34;100433.31;;;0.52;75.41
40730;BME280;26418;50.070;8.436;2023-03-03T05:07:00;100425.13;;;0.53;75.47
40730;BME280;26418;50.070;8.436;2023-03-03T05:09:25;100411.91;;;0.46;75.80
40730;BME280;26418;50.070;8.436;2023-03-03T05:11:51;100434.94;;;0.53;75.82
40730;BME280;26418;50.070;8.436;2023-03-03T05:14:16;100436.59;;;0.54;75.98
40730;BME280;26418;50.070;8.436;2023-03-03T05:16:41;100445.00;;;0.51;75.85
40730;BME280;26418;50.070;8.436;2023-03-03T05:19:07;100421.44;;;0.36;76.15
40730;BME280;26418;50.070;8.436;2023-03-03T05:21:33;100441.22;;;0.40;76.46
40730;BME280;26418;50.070;8.436;2023-03-03T05:23:58;100444.25;;;0.43;77.41
40730;BME280;26418;50.070;8.436;2023-03-03T05:26:23;100444.84;;;0.45;77.58
40730;BME280;26418;50.070;8.436;2023-03-03T05:28:49;100448.53;;;0.44;78.12
40730;BME280;26418;50.070;8.436;2023-03-03T05:31:14;100442.19;;;0.45;78.46
40730;BME280;26418;50.070;8.436;2023-03-03T05:33:40;100441.81;;;0.42;78.88
40730;BME280;26418;50.070;8.436;2023-03-03T05:36:06;100449.38;;;0.45;78.75
40730;BME280;26418;50.070;8.436;2023-03-03T05:38:31;100449.09;;;0.53;79.15
40730;BME280;26418;50.070;8.436;2023-03-03T05:40:56;100458.47;;;0.56;78.44
40730;BME280;26418;50.070;8.436;2023-03-03T05:43:22;100454.41;;;0.53;78.84
40730;BME280;26418;50.070;8.436;2023-03-03T05:45:47;100438.19;;;0.36;79.09
40730;BME280;26418;50.070;8.436;2023-03-03T05:48:18;100457.78;;;0.42;79.38
40730;BME280;26418;50.070;8.436;2023-03-03T05:50:43;100459.28;;;0.38;79.66
40730;BME280;26418;50.070;8.436;2023-03-03T05:53:08;100461.66;;;0.46;79.61
40730;BME280;26418;50.070;8.436;2023-03-03T05:55:34;100462.06;;;0.43;79.76
40730;BME280;26418;50.070;8.436;2023-03-03T05:57:59;100462.31;;;0.41;79.61
40730;BME280;26418;50.070;8.436;2023-03-03T06:00:24;100455.41;;;0.34;79.84
40730;BME280;26418;50.070;8.436;2023-03-03T06:02:50;100461.34;;;0.36;80.05
40730;BME280;26418;50.070;8.436;2023-03-03T06:05:16;100462.63;;;0.26;80.39
40730;BME280;26418;50.070;8.436;2023-03-03T06:07:41;100476.31;;;0.30;80.67
40730;BME280;26418;50.070;8.436;2023-03-03T06:10:07;100478.38;;;0.28;80.83
40730;BME280;26418;50.070;8.436;2023-03-03T06:12:32;100485.28;;;0.36;80.56
40730;BME280;26418;50.070;8.436;2023-03-03T06:14:58;100480.00;;;0.29;80.74
40730;BME280;26418;50.070;8.436;2023-03-03T06:17:23;100480.00;;;0.29;80.82
40730;BME280;26418;50.070;8.436;2023-03-03T06:19:48;100490.88;;;0.27;81.35
40730;BME280;26418;50.070;8.436;2023-03-03T06:22:14;100500.38;;;0.42;84.54
40730;BME280;26418;50.070;8.436;2023-03-03T06:24:39;100491.53;;;0.67;89.44
40730;BME280;26418;50.070;8.436;2023-03-03T06:27:05;100510.34;;;1.09;91.93
40730;BME280;26418;50.070;8.436;2023-03-03T06:29:30;100512.03;;;1.40;94.13
40730;BME280;26418;50.070;8.436;2023-03-03T06:31:55;100512.84;;;1.71;92.91
40730;BME280;26418;50.070;8.436;2023-03-03T06:34:21;100499.88;;;1.75;90.95
40730;BME280;26418;50.070;8.436;2023-03-03T06:36:46;100513.91;;;1.82;87.84
40730;BME280;26418;50.070;8.436;2023-03-03T06:39:12;100518.22;;;1.83;87.59
40730;BME280;26418;50.070;8.436;2023-03-03T06:41:37;100522.22;;;1.74;84.25
40730;BME280;26418;50.070;8.436;2023-03-03T06:44:03;100514.19;;;1.62;81.37
40730;BME280;26418;50.070;8.436;2023-03-03T06:46:28;100519.78;;;1.42;80.98
40730;BME280;26418;50.070;8.436;2023-03-03T06:48:53;100522.47;;;1.23;81.16
40730;BME280;26418;50.070;8.436;2023-03-03T06:51:22;100526.38;;;1.02;81.11
40730;BME280;26418;50.070;8.436;2023-03-03T06:53:52;100523.34;;;0.80;80.87
40730;BME280;26418;50.070;8.436;2023-03-03T06:56:19;100538.00;;;0.71;81.67
40730;BME280;26418;50.070;8.436;2023-03-03T06:58:44;100537.00;;;0.65;82.59
40730;BME280;26418;50.070;8.436;2023-03-03T07:01:15;100540.81;;;0.51;82.75
40730;BME280;26418;50.070;8.436;2023-03-03T07:03:41;100561.28;;;0.50;82.61
40730;BME280;26418;50.070;8.436;2023-03-03T07:06:22;100552.31;;;0.44;83.70
40730;BME280;26418;50.070;8.436;2023-03-03T07:08:49;100546.47;;;0.36;83.45
40730;BME280;26418;50.070;8.436;2023-03-03T07:11:17;100562.22;;;0.37;83.53
40730;BME280;26418;50.070;8.436;2023-03-03T07:13:49;100573.25;;;0.41;83.86
40730;BME280;26418;50.070;8.436;2023-03-03T07:16:16;100575.59;;;0.56;85.42
40730;BME280;26418;50.070;8.436;2023-03-03T07:18:54;100567.69;;;0.68;85.13
40730;BME280;26418;50.070;8.436;2023-03-03T07:21:27;100558.63;;;0.75;84.02
40730;BME280;26418;50.070;8.436;2023-03-03T07:23:55;100555.78;;;0.70;83.48
40730;BME280;26418;50.070;8.436;2023-03-03T07:26:27;100581.63;;;0.88;82.91
40730;BME280;26418;50.070;8.436;2023-03-03T07:29:03;100567.09;;;0.91;82.59
40730;BME280;26418;50.070;8.436;2023-03-03T07:31:40;100590.16;;;0.97;82.23
40730;BME280;26418;50.070;8.436;2023-03-03T07:37:08;100589.88;;;1.05;81.82
40730;BME280;26418;50.070;8.436;2023-03-03T07:39:37;100596.38;;;1.09;81.61
40730;BME280;26418;50.070;8.436;2023-03-03T07:44:37;100609.41;;;0.99;81.55
40730;BME280;26418;50.070;8.436;2023-03-03T07:47:16;100614.22;;;1.09;81.94
40730;BME280;26418;50.070;8.436;2023-03-03T07:49:43;100609.66;;;1.16;81.13
40730;BME280;26418;50.070;8.436;2023-03-03T07:55:00;100591.28;;;1.08;80.31
40730;BME280;26418;50.070;8.436;2023-03-03T07:57:35;100614.34;;;1.39;83.26
40730;BME280;26418;50.070;8.436;2023-03-03T08:00:08;100616.84;;;1.53;80.30
40730;BME280;26418;50.070;8.436;2023-03-03T08:07:49;100623.72;;;1.42;79.67
40730;BME280;26418;50.070;8.436;2023-03-03T08:10:34;100617.38;;;1.43;79.59
40730;BME280;26418;50.070;8.436;2023-03-03T08:13:01;100629.50;;;1.57;79.50
40730;BME280;26418;50.070;8.436;2023-03-03T08:15:35;100610.03;;;1.57;79.75
40730;BME280;26418;50.070;8.436;2023-03-03T08:18:01;100622.75;;;1.73;78.89
40730;BME280;26418;50.070;8.436;2023-03-03T08:20:47;100629.72;;;1.75;79.33
40730;BME280;26418;50.070;8.436;2023-03-03T08:25:17;100629.69;;;1.93;77.88
40730;BME280;26418;50.070;8.436;2023-03-03T08:27:43;100635.09;;;2.05;77.59
40730;BME280;26418;50.070;8.436;2023-03-03T08:30:09;100624.44;;;2.05;77.38
40730;BME280;26418;50.070;8.436;2023-03-03T08:32:34;100623.34;;;2.06;77.31
40730;BME280;26418;50.070;8.436;2023-03-03T08:34:59;100619.88;;;2.06;77.81
40730;BME280;26418;50.070;8.436;2023-03-03T08:37:25;100632.13;;;2.13;77.08
40730;BME280;26418;50.070;8.436;2023-03-03T08:39:50;100621.75;;;2.05;76.92
40730;BME280;26418;50.070;8.436;2023-03-03T08:42:15;100622.47;;;2.12;76.64
40730;BME280;26418;50.070;8.436;2023-03-03T08:44:40;100618.91;;;2.18;76.85
40730;BME280;26418;50.070;8.436;2023-03-03T08:47:06;100628.59;;;2.43;76.66
40730;BME280;26418;50.070;8.436;2023-03-03T08:49:31;100619.56;;;2.56;76.36
40730;BME280;26418;50.070;8.436;2023-03-03T08:51:56;100638.06;;;2.81;76.23
40730;BME280;26418;50.070;8.436;2023-03-03T08:54:22;100623.47;;;2.96;75.59
40730;BME280;26418;50.070;8.436;2023-03-03T08:56:47;100632.16;;;3.03;74.63
40730;BME280;26418;50.070;8.436;2023-03-03T08:59:12;100636.69;;;3.03;74.41
40730;BME280;26418;50.070;8.436;2023-03-03T09:01:38;100641.13;;;3.09;74.52
40730;BME280;26418;50.070;8.436;2023-03-03T09:04:03;100640.78;;;3.17;73.83
40730;BME280;26418;50.070;8.436;2023-03-03T09:06:28;100640.78;;;3.17;73.92
40730;BME280;26418;50.070;8.436;2023-03-03T09:08:54;100643.44;;;3.29;73.29
40730;BME280;26418;50.070;8.436;2023-03-03T09:11:25;100643.19;;;3.30;73.23
40730;BME280;26418;50.070;8.436;2023-03-03T09:13:53;100652.25;;;3.29;73.62
40730;BME280;26418;50.070;8.436;2023-03-03T09:16:22;100644.81;;;3.43;73.23
40730;BME280;26418;50.070;8.436;2023-03-03T09:18:47;100642.00;;;3.50;73.28
40730;BME280;26418;50.070;8.436;2023-03-03T09:21:29;100633.84;;;3.69;72.69
40730;BME280;26418;50.070;8.436;2023-03-03T09:23:59;100635.31;;;3.76;72.05
40730;BME280;26418;50.070;8.436;2023-03-03T09:26:47;100625.53;;;3.82;71.35
40730;BME280;26418;50.070;8.436;2023-03-03T09:31:49;100657.31;;;4.36;70.39
40730;BME280;26418;50.070;8.436;2023-03-03T09:34:40;100655.56;;;4.42;69.13
40730;BME280;26418;50.070;8.436;2023-03-03T09:37:23;100642.97;;;4.43;68.68
40730;BME280;26418;50.070;8.436;2023-03-03T09:39:55;100643.94;;;4.53;68.64
40730;BME280;26418;50.070;8.436;2023-03-03T09:42:40;100646.84;;;4.81;69.31
40730;BME280;26418;50.070;8.436;2023-03-03T09:48:35;100654.44;;;5.23;67.26
40730;BME280;26418;50.070;8.436;2023-03-03T09:56:53;100660.91;;;5.27;65.41
40730;BME280;26418;50.070;8.436;2023-03-03T09:59:27;100665.94;;;5.41;64.54
40730;BME280;26418;50.070;8.436;2023-03-03T10:04:47;100662.00;;;5.48;65.04
40730;BME280;26418;50.070;8.436;2023-03-03T10:07:21;100660.97;;;5.72;65.38
40730;BME280;26418;50.070;8.436;2023-03-03T10:17:41;100664.81;;;6.25;61.75
40730;BME280;26418;50.070;8.436;2023-03-03T10:20:11;100664.69;;;6.37;62.04
40730;BME280;26418;50.070;8.436;2023-03-03T10:22:51;100656.47;;;6.49;61.41
40730;BME280;26418;50.070;8.436;2023-03-03T10:25:41;100660.16;;;6.70;60.34
40730;BME280;26418;50.070;8.436;2023-03-03T10:34:28;100665.56;;;6.75;59.69
40730;BME280;26418;50.070;8.436;2023-03-03T10:42:20;100680.00;;;6.97;58.53
40730;BME280;26418;50.070;8.436;2023-03-03T10:45:26;100679.06;;;7.18;58.76
40730;BME280;26418;50.070;8.436;2023-03-03T11:01:57;100670.94;;;7.56;55.66
40730;BME280;26418;50.070;8.436;2023-03-03T11:07:20;100673.41;;;7.58;55.11
40730;BME280;26418;50.070;8.436;2023-03-03T11:12:30;100679.13;;;7.71;55.56
40730;BME280;26418;50.070;8.436;2023-03-03T11:20:44;100673.63;;;8.14;54.85
40730;BME280;26418;50.070;8.436;2023-03-03T11:25:54;100670.91;;;8.14;55.01
40730;BME280;26418;50.070;8.436;2023-03-03T11:28:43;100665.66;;;8.76;58.72
40730;BME280;26418;50.070;8.436;2023-03-03T11:31:20;100661.78;;;9.39;55.36
40730;BME280;26418;50.070;8.436;2023-03-03T11:37:32;100651.25;;;10.09;49.08
40730;BME280;26418;50.070;8.436;2023-03-03T11:39:36;100641.91;;;9.85;49.59
40730;BME280;26418;50.070;8.436;2023-03-03T11:42:45;100641.78;;;9.61;49.72
40730;BME280;26418;50.070;8.436;2023-03-03T11:45:21;100644.72;;;9.59;49.77
40730;BME280;26418;50.070;8.436;2023-03-03T11:50:53;100632.97;;;9.19;51.24
40730;BME280;26418;50.070;8.436;2023-03-03T11:53:30;100627.03;;;9.22;51.59
40730;BME280;26418;50.070;8.436;2023-03-03T11:58:59;100619.72;;;9.33;49.89
40730;BME280;26418;50.070;8.436;2023-03-03T12:01:53;100608.09;;;9.33;51.22
40730;BME280;26418;50.070;8.436;2023-03-03T12:04:33;100613.16;;;9.50;50.47
40730;BME280;26418;50.070;8.436;2023-03-03T12:07:15;100610.16;;;9.62;49.56
40730;BME280;26418;50.070;8.436;2023-03-03T12:09:54;100607.78;;;9.50;49.00
40730;BME280;26418;50.070;8.436;2023-03-03T12:20:56;100591.75;;;9.69;47.95
40730;BME280;26418;50.070;8.436;2023-03-03T12:23:33;100588.59;;;9.56;48.35
40730;BME280;26418;50.070;8.436;2023-03-03T12:26:14;100581.31;;;9.47;48.47
40730;BME280;26418;50.070;8.436;2023-03-03T12:28:52;100587.28;;;9.38;48.45
40730;BME280;26418;50.070;8.436;2023-03-03T12:34:10;100574.63;;;9.23;48.67
40730;BME280;26418;50.070;8.436;2023-03-03T12:36:49;100572.28;;;8.96;49.69
40730;BME280;26418;50.070;8.436;2023-03-03T12:39:42;100571.16;;;9.12;49.99
40730;BME280;26418;50.070;8.436;2023-03-03T12:47:54;100557.38;;;9.80;48.66
40730;BME280;26418;50.070;8.436;2023-03-03T12:53:40;100558.25;;;10.15;46.79
40730;BME280;26418;50.070;8.436;2023-03-03T12:56:19;100557.69;;;10.18;46.83
40730;BME280;26418;50.070;8.436;2023-03-03T13:07:05;100556.38;;;10.10;47.07
40730;BME280;26418;50.070;8.436;2023-03-03T13:15:15;100542.19;;;9.89;47.21
40730;BME280;26418;50.070;8.436;2023-03-03T13:20:58;100527.13;;;9.83;47.74
40730;BME280;26418;50.070;8.436;2023-03-03T13:29:03;100532.56;;;9.72;48.00
40730;BME280;26418;50.070;8.436;2023-03-03T13:31:37;100536.91;;;9.73;47.34
40730;BME280;26418;50.070;8.436;2023-03-03T13:34:04;100531.28;;;9.65;48.16
40730;BME280;26418;50.070;8.436;2023-03-03T13:36:37;100535.28;;;9.72;48.54
40730;BME280;26418;50.070;8.436;2023-03-03T13:39:25;100531.69;;;9.82;48.42
40730;BME280;26418;50.070;8.436;2023-03-03T13:42:00;100534.72;;;9.75;48.06
40730;BME280;26418;50.070;8.436;2023-03-03T13:44:37;100530.69;;;9.73;48.53
40730;BME280;26418;50.070;8.436;2023-03-03T13:47:19;100523.69;;;9.72;48.30
40730;BME280;26418;50.070;8.436;2023-03-03T13:52:26;100526.97;;;9.58;48.24
40730;BME280;26418;50.070;8.436;2023-03-03T13:54:56;100520.03;;;9.42;48.91
40730;BME280;26418;50.070;8.436;2023-03-03T14:07:58;100512.28;;;9.35;48.72
40730;BME280;26418;50.070;8.436;2023-03-03T14:10:33;100520.63;;;9.34;48.65
40730;BME280;26418;50.070;8.436;2023-03-03T14:16:08;100509.47;;;8.85;49.18
40730;BME280;26418;50.070;8.436;2023-03-03T14:21:30;100507.31;;;8.87;49.72
40730;BME280;26418;50.070;8.436;2023-03-03T14:23:58;100506.81;;;8.80;49.52
40730;BME280;26418;50.070;8.436;2023-03-03T14:26:28;100507.31;;;8.82;49.88
40730;BME280;26418;50.070;8.436;2023-03-03T14:29:13;100506.75;;;8.90;49.89
40730;BME280;26418;50.070;8.436;2023-03-03T14:31:41;100507.06;;;8.84;49.29
40730;BME280;26418;50.070;8.436;2023-03-03T14:36:40;100504.06;;;8.90;49.85
40730;BME280;26418;50.070;8.436;2023-03-03T14:39:31;100492.50;;;8.85;49.95
40730;BME280;26418;50.070;8.436;2023-03-03T14:41:57;100498.66;;;8.90;49.94
40730;BME280;26418;50.070;8.436;2023-03-03T14:44:29;100496.53;;;8.82;50.03
40730;BME280;26418;50.070;8.436;2023-03-03T14:49:34;100498.19;;;8.57;50.64
40730;BME280;26418;50.070;8.436;2023-03-03T14:52:17;100507.38;;;8.56;51.06
40730;BME280;26418;50.070;8.436;2023-03-03T14:54:46;100498.75;;;8.59;51.67
40730;BME280;26418;50.070;8.436;2023-03-03T14:57:16;100502.25;;;8.65;51.41
40730;BME280;26418;50.070;8.436;2023-03-03T15:00:08;100500.09;;;8.67;51.62
40730;BME280;26418;50.070;8.436;2023-03-03T15:02:58;100496.88;;;8.60;51.33
40730;BME280;26418;50.070;8.436;2023-03-03T15:05:28;100488.50;;;8.51;51.25
40730;BME280;26418;50.070;8.436;2023-03-03T15:08:07;100498.75;;;8.59;51.46
40730;BME280;26418;50.070;8.436;2023-03-03T15:10:36;100493.59;;;8.63;51.55
40730;BME280;26418;50.070;8.436;2023-03-03T15:18:13;100486.34;;;8.48;51.73
40730;BME280;26418;50.070;8.436;2023-03-03T15:23:33;100494.44;;;8.43;52.24
40730;BME280;26418;50.070;8.436;2023-03-03T15:29:11;100496.06;;;8.28;52.08
40730;BME280;26418;50.070;8.436;2023-03-03T15:31:52;100490.66;;;8.23;52.40
40730;BME280;26418;50.070;8.436;2023-03-03T15:34:53;100493.09;;;8.14;52.59
40730;BME280;26418;50.070;8.436;2023-03-03T15:37:56;100495.25;;;8.07;52.92
40730;BME280;26418;50.070;8.436;2023-03-03T15:40:48;100481.50;;;7.93;53.26
40730;BME280;26418;50.070;8.436;2023-03-03T15:43:27;100495.22;;;8.02;53.45
40730;BME280;26418;50.070;8.436;2023-03-03T15:48:52;100498.47;;;7.99;52.91
40730;BME280;26418;50.070;8.436;2023-03-03T15:54:35;100499.53;;;7.87;53.03
40730;BME280;26418;50.070;8.436;2023-03-03T15:57:12;100505.75;;;7.88;54.45
40730;BME280;26418;50.070;8.436;2023-03-03T15:59:56;100496.84;;;7.87;54.29
40730;BME280;26418;50.070;8.436;2023-03-03T16:07:59;100507.88;;;7.76;54.22
40730;BME280;26418;50.070;8.436;2023-03-03T16:10:48;100501.66;;;7.65;54.34
40730;BME280;26418;50.070;8.436;2023-03-03T16:24:28;100521.19;;;7.24;56.00
40730;BME280;26418;50.070;8.436;2023-03-03T16:27:26;100521.41;;;7.12;56.24
40730;BME280;26418;50.070;8.436;2023-03-03T16:30:03;100521.91;;;7.04;56.83
40730;BME280;26418;50.070;8.436;2023-03-03T16:32:35;100524.28;;;6.95;57.02
40730;BME280;26418;50.070;8.436;2023-03-03T16:35:23;100527.72;;;6.85;57.34
40730;BME280;26418;50.070;8.436;2023-03-03T16:37:59;100529.81;;;6.73;57.44
40730;BME280;26418;50.070;8.436;2023-03-03T16:40:53;100521.09;;;6.60;57.55